Time;durP1;ratioP1;P1;durP2;ratioP2;P2;SDS_P1;SDS_P2;PMS_P1;PMS_P2;Temp;Humidity;BMP_temperature;BMP_pressure;BME280_temperature;BME280_humidity;BME280_pressure;Samples;Min_cycle;Max_cycle;Signal;HPM_P1;HPM_P2
2023/10/08 00:02:10;;;;;;;10.47;9.57;;;;;;;;;;2609632;54;21297;-75
2023/10/08 00:04:37;;;;;;;12.83;9.80;;;;;;;;;;2610529;54;21507;-76
2023/10/08 00:07:07;;;;;;;10.73;9.83;;;;;;;;;;2610265;54;21093;-75
2023/10/08 00:09:36;;;;;;;12.97;11.77;;;;;;;;;;2610864;54;20447;-76
2023/10/08 00:12:03;;;;;;;11.83;10.67;;;;;;;;;;2610956;54;20384;-72
2023/10/08 00:14:29;;;;;;;10.30;9.30;;;;;;;;;;2609322;46;20415;-73
2023/10/08 00:16:55;;;;;;;11.20;9.63;;;;;;;;;;2609309;54;20419;-73
2023/10/08 00:19:21;;;;;;;12.30;10.40;;;;;;;;;;2613567;54;20408;-73
2023/10/08 00:21:48;;;;;;;11.80;9.90;;;;;;;;;;2609659;54;20420;-73
2023/10/08 00:24:15;;;;;;;10.60;9.60;;;;;;;;;;2610974;39;21220;-73
2023/10/08 00:26:41;;;;;;;11.97;10.83;;;;;;;;;;2610596;54;20435;-73
2023/10/08 00:29:22;;;;;;;10.97;9.90;;;;;;;;;;2610699;39;20927;-74
2023/10/08 00:31:49;;;;;;;10.70;9.83;;;;;;;;;;2611434;39;20900;-74
2023/10/08 00:34:17;;;;;;;10.60;9.60;;;;;;;;;;2611380;54;20428;-73
2023/10/08 00:36:49;;;;;;;11.50;10.40;;;;;;;;;;2610894;54;20562;-73
2023/10/08 00:39:26;;;;;;;14.73;10.80;;;;;;;;;;2612741;54;20423;-74
2023/10/08 00:41:58;;;;;;;10.80;9.83;;;;;;;;;;2610098;47;20426;-73
2023/10/08 00:44:30;;;;;;;11.03;9.90;;;;;;;;;;2609843;54;21048;-74
2023/10/08 00:47:00;;;;;;;10.07;9.20;;;;;;;;;;2611210;54;20450;-74
2023/10/08 00:49:47;;;;;;;11.30;9.93;;;;;;;;;;2610984;54;20522;-73
2023/10/08 00:54:55;;;;;;;11.93;9.63;;;;;;;;;;2610648;54;20388;-74
2023/10/08 00:57:29;;;;;;;14.93;11.33;;;;;;;;;;2610751;54;20411;-74
2023/10/08 00:59:56;;;;;;;11.00;10.10;;;;;;;;;;2609876;54;21345;-74
2023/10/08 01:02:27;;;;;;;10.77;9.67;;;;;;;;;;2610580;39;21182;-73
2023/10/08 01:04:54;;;;;;;10.77;9.87;;;;;;;;;;2610619;54;21028;-74
2023/10/08 01:07:21;;;;;;;11.63;10.53;;;;;;;;;;2609636;54;20432;-74
2023/10/08 01:09:50;;;;;;;11.93;10.07;;;;;;;;;;2612371;54;20486;-73
2023/10/08 01:12:22;;;;;;;12.97;11.03;;;;;;;;;;2612508;47;20523;-76
2023/10/08 01:14:51;;;;;;;17.83;10.97;;;;;;;;;;2612674;54;20524;-74
2023/10/08 01:17:19;;;;;;;11.13;9.90;;;;;;;;;;2612480;51;20412;-75
2023/10/08 01:22:34;;;;;;;9.67;8.87;;;;;;;;;;2613759;46;20407;-76
2023/10/08 01:25:02;;;;;;;12.20;10.00;;;;;;;;;;2611704;54;21001;-75
2023/10/08 01:27:34;;;;;;;17.60;9.40;;;;;;;;;;2613546;54;20412;-74
2023/10/08 01:30:17;;;;;;;10.33;9.13;;;;;;;;;;2613193;54;21148;-75
2023/10/08 01:32:44;;;;;;;10.40;9.40;;;;;;;;;;2612726;54;20466;-76
2023/10/08 01:35:22;;;;;;;10.27;9.30;;;;;;;;;;2612939;54;20392;-76
2023/10/08 01:37:50;;;;;;;13.60;11.10;;;;;;;;;;2613342;54;20435;-74
2023/10/08 01:40:16;;;;;;;12.50;10.30;;;;;;;;;;2612439;54;20420;-76
2023/10/08 01:42:42;;;;;;;12.20;10.37;;;;;;;;;;2612433;47;20427;-77
2023/10/08 01:45:13;;;;;;;11.43;10.30;;;;;;;;;;2612391;54;20966;-76
2023/10/08 01:47:39;;;;;;;11.73;10.63;;;;;;;;;;2612796;54;20438;-75
2023/10/08 01:50:18;;;;;;;11.53;10.43;;;;;;;;;;2613354;54;20455;-75
2023/10/08 01:52:46;;;;;;;10.73;9.70;;;;;;;;;;2612537;47;20451;-75
2023/10/08 01:55:17;;;;;;;11.60;10.07;;;;;;;;;;2612308;54;20388;-75
2023/10/08 01:57:43;;;;;;;11.97;10.80;;;;;;;;;;2611984;39;20877;-74
2023/10/08 02:00:09;;;;;;;13.77;11.50;;;;;;;;;;2613425;54;20414;-75
2023/10/08 02:02:36;;;;;;;10.30;9.37;;;;;;;;;;2613402;54;20420;-76
2023/10/08 02:05:04;;;;;;;14.27;10.07;;;;;;;;;;2612314;54;20404;-76
2023/10/08 02:07:30;;;;;;;12.60;9.80;;;;;;;;;;2612653;47;20427;-76
2023/10/08 02:09:57;;;;;;;12.23;10.10;;;;;;;;;;2612798;54;20430;-75
2023/10/08 02:12:23;;;;;;;11.50;10.33;;;;;;;;;;2612946;54;20396;-75
2023/10/08 02:14:49;;;;;;;12.00;9.90;;;;;;;;;;2612207;54;20487;-75
2023/10/08 02:17:15;;;;;;;11.63;10.20;;;;;;;;;;2612616;54;20424;-74
2023/10/08 02:19:42;;;;;;;15.13;11.03;;;;;;;;;;2611752;47;21057;-75
2023/10/08 02:22:09;;;;;;;11.50;9.07;;;;;;;;;;2613264;54;20403;-72
2023/10/08 02:24:37;;;;;;;11.43;10.23;;;;;;;;;;2613184;47;20461;-73
2023/10/08 02:27:03;;;;;;;12.90;9.83;;;;;;;;;;2613522;54;20957;-72
2023/10/08 02:29:30;;;;;;;10.50;9.53;;;;;;;;;;2612525;54;20447;-72
2023/10/08 02:31:58;;;;;;;12.17;9.63;;;;;;;;;;2612818;47;20431;-73
2023/10/08 02:34:25;;;;;;;11.50;10.37;;;;;;;;;;2612224;51;20420;-73
2023/10/08 02:36:52;;;;;;;13.40;10.33;;;;;;;;;;2612047;54;20449;-73
2023/10/08 02:39:21;;;;;;;12.40;11.20;;;;;;;;;;2613642;54;20419;-73
2023/10/08 02:41:48;;;;;;;14.73;10.37;;;;;;;;;;2613379;54;20399;-74
2023/10/08 02:44:14;;;;;;;10.40;9.50;;;;;;;;;;2612620;54;21269;-73
2023/10/08 02:46:51;;;;;;;10.40;9.43;;;;;;;;;;2613484;54;20426;-74
2023/10/08 02:49:20;;;;;;;10.80;9.50;;;;;;;;;;2611801;54;20415;-72
2023/10/08 02:51:46;;;;;;;12.97;9.73;;;;;;;;;;2612603;54;20454;-73
2023/10/08 02:54:18;;;;;;;11.23;9.63;;;;;;;;;;2613581;54;20414;-72
2023/10/08 02:56:45;;;;;;;15.50;9.60;;;;;;;;;;2612269;54;20447;-73
2023/10/08 02:59:14;;;;;;;16.77;10.60;;;;;;;;;;2612253;47;20415;-71
2023/10/08 03:01:41;;;;;;;13.10;10.37;;;;;;;;;;2613322;54;20410;-73
2023/10/08 03:04:15;;;;;;;13.37;10.63;;;;;;;;;;2612732;54;20431;-72
2023/10/08 03:06:41;;;;;;;13.40;9.50;;;;;;;;;;2613230;39;21130;-72
2023/10/08 03:09:13;;;;;;;12.10;9.93;;;;;;;;;;2612225;54;20420;-72
2023/10/08 03:11:39;;;;;;;10.60;9.50;;;;;;;;;;2611265;47;20404;-74
2023/10/08 03:14:14;;;;;;;10.80;9.47;;;;;;;;;;2612702;54;20530;-72
2023/10/08 03:16:41;;;;;;;12.97;9.47;;;;;;;;;;2613483;54;20902;-73
2023/10/08 03:19:09;;;;;;;19.60;10.57;;;;;;;;;;2613046;54;20396;-72
2023/10/08 03:24:12;;;;;;;14.13;9.27;;;;;;;;;;2613291;54;20400;-74
2023/10/08 03:26:39;;;;;;;13.33;10.23;;;;;;;;;;2612062;54;20506;-72
2023/10/08 03:29:15;;;;;;;11.27;9.70;;;;;;;;;;2612477;54;20418;-73
2023/10/08 03:34:15;;;;;;;11.30;9.23;;;;;;;;;;2613015;54;20420;-73
2023/10/08 03:36:44;;;;;;;13.00;10.17;;;;;;;;;;2614276;54;20427;-72
2023/10/08 03:39:15;;;;;;;12.33;11.03;;;;;;;;;;2613143;54;20458;-72
2023/10/08 03:41:42;;;;;;;10.53;8.70;;;;;;;;;;2613861;54;21043;-73
2023/10/08 03:44:16;;;;;;;10.70;9.03;;;;;;;;;;2613629;54;20427;-73
2023/10/08 03:46:43;;;;;;;11.30;9.70;;;;;;;;;;2614633;54;20976;-74
2023/10/08 03:51:51;;;;;;;13.97;10.20;;;;;;;;;;2614192;54;20407;-73
2023/10/08 03:54:18;;;;;;;11.13;8.90;;;;;;;;;;2614663;54;20419;-74
2023/10/08 03:56:45;;;;;;;12.37;9.60;;;;;;;;;;2614018;54;20432;-75
2023/10/08 03:59:12;;;;;;;10.13;9.33;;;;;;;;;;2614430;54;21364;-74
2023/10/08 04:01:40;;;;;;;14.83;10.03;;;;;;;;;;2613234;54;20423;-72
2023/10/08 04:04:15;;;;;;;11.37;10.27;;;;;;;;;;2613710;47;20996;-73
2023/10/08 04:06:51;;;;;;;14.43;10.50;;;;;;;;;;2614380;47;20423;-73
2023/10/08 04:12:03;;;;;;;11.60;9.90;;;;;;;;;;2614511;54;20399;-74
2023/10/08 04:14:29;;;;;;;10.90;9.40;;;;;;;;;;2613858;47;20431;-73
2023/10/08 04:16:55;;;;;;;11.20;10.00;;;;;;;;;;2613994;54;20982;-73
2023/10/08 04:19:27;;;;;;;15.00;9.57;;;;;;;;;;2614667;39;20832;-74
2023/10/08 04:22:00;;;;;;;13.60;10.90;;;;;;;;;;2614777;31;20916;-73
2023/10/08 04:24:36;;;;;;;16.00;9.83;;;;;;;;;;2614151;39;20835;-74
2023/10/08 04:27:05;;;;;;;12.77;9.93;;;;;;;;;;2613759;39;20786;-73
2023/10/08 04:29:32;;;;;;;11.10;10.07;;;;;;;;;;2614222;54;20424;-73
2023/10/08 04:32:07;;;;;;;18.10;9.80;;;;;;;;;;2613712;54;20419;-74
2023/10/08 04:34:34;;;;;;;11.43;9.50;;;;;;;;;;2613951;54;20419;-74
2023/10/08 04:37:12;;;;;;;12.20;10.90;;;;;;;;;;2613067;54;20583;-73
2023/10/08 04:39:40;;;;;;;14.40;9.47;;;;;;;;;;2613678;54;20426;-73
2023/10/08 04:42:10;;;;;;;18.90;10.87;;;;;;;;;;2610374;47;20557;-73
2023/10/08 04:44:40;;;;;;;13.23;9.70;;;;;;;;;;2611661;54;20452;-74
2023/10/08 04:47:08;;;;;;;22.13;10.47;;;;;;;;;;2611810;54;20404;-73
2023/10/08 04:49:45;;;;;;;11.80;9.80;;;;;;;;;;2612284;54;20519;-73
2023/10/08 04:52:14;;;;;;;15.60;10.43;;;;;;;;;;2609057;46;21096;-73
2023/10/08 04:54:41;;;;;;;13.90;9.47;;;;;;;;;;2610819;47;20423;-72
2023/10/08 04:57:15;;;;;;;14.70;10.80;;;;;;;;;;2610519;39;20975;-72
2023/10/08 04:59:42;;;;;;;11.87;9.33;;;;;;;;;;2611010;54;21355;-73
2023/10/08 05:02:34;;;;;;;8.80;8.00;;;;;;;;;;2609554;54;20450;-73
2023/10/08 05:08:28;;;;;;;17.57;9.33;;;;;;;;;;2609220;54;20425;-75
2023/10/08 05:15:37;;;;;;;12.87;10.13;;;;;;;;;;2610613;54;20391;-73
2023/10/08 05:23:42;;;;;;;9.60;8.70;;;;;;;;;;2613013;46;20544;-73
2023/10/08 05:28:46;;;;;;;10.93;8.80;;;;;;;;;;2610942;54;20391;-74
2023/10/08 05:36:35;;;;;;;10.43;8.77;;;;;;;;;;2611105;54;20390;-73
2023/10/08 05:39:19;;;;;;;9.87;8.80;;;;;;;;;;2611247;54;20425;-74
2023/10/08 05:42:12;;;;;;;14.10;9.63;;;;;;;;;;2609836;54;20427;-73
2023/10/08 05:44:39;;;;;;;9.90;7.70;;;;;;;;;;2609736;47;20419;-73
2023/10/08 05:47:12;;;;;;;12.20;8.73;;;;;;;;;;2610607;54;20419;-74
2023/10/08 05:49:42;;;;;;;14.47;9.53;;;;;;;;;;2611024;51;20435;-73
2023/10/08 05:52:24;;;;;;;10.33;9.23;;;;;;;;;;2612210;54;20454;-72
2023/10/08 05:57:46;;;;;;;13.40;9.30;;;;;;;;;;2611587;54;20511;-72
2023/10/08 06:13:06;;;;;;;13.30;9.53;;;;;;;;;;2613118;54;20976;-72
2023/10/08 06:15:48;;;;;;;16.90;8.70;;;;;;;;;;2613020;54;20566;-72
2023/10/08 06:18:14;;;;;;;18.80;10.00;;;;;;;;;;2611914;54;20486;-72
2023/10/08 06:20:44;;;;;;;13.37;10.30;;;;;;;;;;2613271;54;20404;-72
2023/10/08 06:23:18;;;;;;;15.83;9.77;;;;;;;;;;2612849;54;20423;-73
2023/10/08 06:25:47;;;;;;;14.43;9.43;;;;;;;;;;2612347;54;20415;-73
2023/10/08 06:28:21;;;;;;;10.80;9.57;;;;;;;;;;2613122;54;20543;-73
2023/10/08 06:30:48;;;;;;;11.33;9.73;;;;;;;;;;2612468;54;20431;-73
2023/10/08 06:33:16;;;;;;;12.57;9.90;;;;;;;;;;2610222;54;20415;-73
2023/10/08 06:38:33;;;;;;;16.97;10.20;;;;;;;;;;2610867;47;20403;-76
2023/10/08 06:41:00;;;;;;;14.73;10.20;;;;;;;;;;2611208;54;20420;-73
2023/10/08 06:43:28;;;;;;;10.63;9.23;;;;;;;;;;2607052;54;20524;-73
2023/10/08 06:45:58;;;;;;;17.97;11.37;;;;;;;;;;2607321;54;20419;-73
2023/10/08 06:48:24;;;;;;;11.23;9.87;;;;;;;;;;2608785;54;20485;-75
2023/10/08 06:50:56;;;;;;;13.77;9.30;;;;;;;;;;2610906;54;20437;-75
2023/10/08 06:53:22;;;;;;;11.00;9.87;;;;;;;;;;2610746;54;20447;-72
2023/10/08 06:55:55;;;;;;;11.03;9.93;;;;;;;;;;2610989;54;20550;-74
2023/10/08 06:58:21;;;;;;;16.87;10.33;;;;;;;;;;2611017;54;20823;-73
2023/10/08 07:00:48;;;;;;;14.23;10.57;;;;;;;;;;2609788;54;20420;-73
2023/10/08 07:03:15;;;;;;;12.30;9.37;;;;;;;;;;2609129;54;20554;-74
2023/10/08 07:05:54;;;;;;;15.13;10.67;;;;;;;;;;2609731;39;20831;-73
2023/10/08 07:08:26;;;;;;;14.47;10.57;;;;;;;;;;2611330;54;20408;-73
2023/10/08 07:10:53;;;;;;;13.73;10.20;;;;;;;;;;2611512;39;20820;-72
2023/10/08 07:13:21;;;;;;;13.97;10.77;;;;;;;;;;2610326;54;20463;-74
2023/10/08 07:15:49;;;;;;;12.33;10.20;;;;;;;;;;2612666;54;20432;-74
2023/10/08 07:18:21;;;;;;;14.90;11.17;;;;;;;;;;2612921;54;20408;-74
2023/10/08 07:20:53;;;;;;;18.00;10.33;;;;;;;;;;2612793;51;20439;-75
2023/10/08 07:23:20;;;;;;;16.70;10.40;;;;;;;;;;2611913;54;20439;-74
2023/10/08 07:25:51;;;;;;;12.57;11.13;;;;;;;;;;2613017;39;21372;-75
2023/10/08 07:28:19;;;;;;;13.07;11.27;;;;;;;;;;2612053;47;20461;-74
2023/10/08 07:30:45;;;;;;;18.60;12.97;;;;;;;;;;2612419;54;20415;-74
2023/10/08 07:33:18;;;;;;;14.57;11.83;;;;;;;;;;2612123;54;20423;-74
2023/10/08 07:35:53;;;;;;;26.73;12.07;;;;;;;;;;2613325;54;20478;-74
2023/10/08 07:38:21;;;;;;;13.87;11.37;;;;;;;;;;2613562;39;20811;-73
2023/10/08 07:40:48;;;;;;;16.77;11.97;;;;;;;;;;2612803;54;20435;-73
2023/10/08 07:43:14;;;;;;;15.60;11.90;;;;;;;;;;2613786;54;20415;-73
2023/10/08 07:45:45;;;;;;;16.97;13.30;;;;;;;;;;2613206;47;20411;-74
2023/10/08 07:48:13;;;;;;;21.23;13.10;;;;;;;;;;2611744;54;20398;-74
2023/10/08 07:50:47;;;;;;;22.23;12.50;;;;;;;;;;2611135;47;20432;-74
2023/10/08 07:53:17;;;;;;;24.13;12.97;;;;;;;;;;2613753;54;20439;-74
2023/10/08 07:55:45;;;;;;;13.70;10.07;;;;;;;;;;2612142;47;20478;-73
2023/10/08 07:58:11;;;;;;;11.10;9.23;;;;;;;;;;2613751;39;21076;-74
2023/10/08 08:00:39;;;;;;;12.63;8.70;;;;;;;;;;2612679;54;20431;-74
2023/10/08 08:03:05;;;;;;;9.33;8.30;;;;;;;;;;2611694;54;21322;-74
2023/10/08 08:05:40;;;;;;;9.00;8.20;;;;;;;;;;2612949;46;20907;-74
2023/10/08 08:08:06;;;;;;;13.40;10.43;;;;;;;;;;2613696;54;20441;-74
2023/10/08 08:10:36;;;;;;;11.30;8.20;;;;;;;;;;2614344;54;20438;-74
2023/10/08 08:13:05;;;;;;;10.30;8.23;;;;;;;;;;2613382;39;20916;-74
2023/10/08 08:15:33;;;;;;;10.53;7.97;;;;;;;;;;2612760;54;21052;-74
2023/10/08 08:18:00;;;;;;;10.70;7.57;;;;;;;;;;2613358;54;20407;-74
2023/10/08 08:20:38;;;;;;;16.47;7.93;;;;;;;;;;2613261;54;20424;-74
2023/10/08 08:23:08;;;;;;;13.97;7.50;;;;;;;;;;2613311;54;20447;-75
2023/10/08 08:25:45;;;;;;;8.53;7.27;;;;;;;;;;2612933;54;20410;-75
2023/10/08 08:28:16;;;;;;;11.13;8.70;;;;;;;;;;2613909;54;20403;-75
2023/10/08 08:30:47;;;;;;;9.47;8.00;;;;;;;;;;2613521;54;20396;-75
2023/10/08 08:33:22;;;;;;;11.37;10.03;;;;;;;;;;2612699;46;20419;-75
2023/10/08 08:35:48;;;;;;;20.93;13.17;;;;;;;;;;2612335;54;21105;-75
2023/10/08 08:38:14;;;;;;;21.63;12.67;;;;;;;;;;2612617;54;20408;-75
2023/10/08 08:40:40;;;;;;;11.90;10.17;;;;;;;;;;2611220;54;20427;-75
2023/10/08 08:43:07;;;;;;;16.90;10.13;;;;;;;;;;2612606;54;20427;-74
2023/10/08 08:45:35;;;;;;;13.30;9.70;;;;;;;;;;2612126;39;21007;-74
2023/10/08 08:48:02;;;;;;;17.43;13.27;;;;;;;;;;2609643;54;20488;-74
2023/10/08 08:50:28;;;;;;;15.87;12.70;;;;;;;;;;2611478;54;20403;-75
2023/10/08 08:52:54;;;;;;;27.60;16.93;;;;;;;;;;2609914;54;20970;-75
2023/10/08 08:55:22;;;;;;;23.83;17.23;;;;;;;;;;2611015;54;20447;-75
2023/10/08 08:57:50;;;;;;;32.00;21.10;;;;;;;;;;2609913;54;20443;-75
2023/10/08 09:00:17;;;;;;;22.73;18.37;;;;;;;;;;2610759;54;20925;-75
2023/10/08 09:02:47;;;;;;;22.10;16.90;;;;;;;;;;2610255;54;20403;-74
2023/10/08 09:05:23;;;;;;;21.67;15.67;;;;;;;;;;2612359;54;20965;-75
2023/10/08 09:07:56;;;;;;;14.13;11.43;;;;;;;;;;2612230;54;20463;-74
2023/10/08 09:10:29;;;;;;;11.50;9.73;;;;;;;;;;2611907;54;20479;-74
2023/10/08 09:12:59;;;;;;;17.27;12.57;;;;;;;;;;2608178;54;20415;-75
2023/10/08 09:15:26;;;;;;;17.90;13.20;;;;;;;;;;2610243;54;20491;-75
2023/10/08 09:18:04;;;;;;;18.77;12.23;;;;;;;;;;2608404;54;20435;-74
2023/10/08 09:20:31;;;;;;;17.10;12.70;;;;;;;;;;2608771;54;20404;-74
2023/10/08 09:23:11;;;;;;;13.80;11.70;;;;;;;;;;2609560;47;20431;-75
2023/10/08 09:25:38;;;;;;;15.30;11.87;;;;;;;;;;2610518;54;20387;-75
2023/10/08 09:28:07;;;;;;;11.97;10.33;;;;;;;;;;2610168;54;20439;-75
2023/10/08 09:30:37;;;;;;;14.07;10.90;;;;;;;;;;2609652;54;20415;-75
2023/10/08 09:33:05;;;;;;;15.77;11.40;;;;;;;;;;2611368;54;20462;-74
2023/10/08 09:35:36;;;;;;;18.10;12.13;;;;;;;;;;2615600;54;20447;-74
2023/10/08 09:38:15;;;;;;;13.73;10.53;;;;;;;;;;2615414;54;20403;-74
2023/10/08 09:40:44;;;;;;;18.10;9.63;;;;;;;;;;2615403;39;21078;-74
2023/10/08 09:43:17;;;;;;;12.60;10.00;;;;;;;;;;2614580;47;20466;-74
2023/10/08 09:45:51;;;;;;;13.10;9.80;;;;;;;;;;2614892;54;20503;-74
2023/10/08 09:48:19;;;;;;;16.80;11.20;;;;;;;;;;2614956;54;20425;-74
2023/10/08 09:50:45;;;;;;;16.60;10.13;;;;;;;;;;2614668;39;20783;-76
2023/10/08 09:53:16;;;;;;;12.33;8.80;;;;;;;;;;2614395;47;20505;-73
2023/10/08 09:55:51;;;;;;;10.53;9.43;;;;;;;;;;2614839;54;20533;-74
2023/10/08 09:58:17;;;;;;;10.40;8.30;;;;;;;;;;2614885;46;20431;-73
2023/10/08 10:00:44;;;;;;;9.20;8.30;;;;;;;;;;2613416;54;20503;-73
2023/10/08 10:03:12;;;;;;;10.00;9.10;;;;;;;;;;2613833;54;21352;-73
2023/10/08 10:05:40;;;;;;;9.03;8.20;;;;;;;;;;2615444;54;20419;-73
2023/10/08 10:08:09;;;;;;;8.67;7.50;;;;;;;;;;2615425;39;20822;-73
2023/10/08 10:10:38;;;;;;;7.57;6.63;;;;;;;;;;2616225;39;20810;-73
2023/10/08 10:13:05;;;;;;;5.93;4.70;;;;;;;;;;2615185;54;20559;-73
2023/10/08 10:15:37;;;;;;;5.80;5.40;;;;;;;;;;2615243;47;20408;-74
2023/10/08 10:18:18;;;;;;;5.97;5.37;;;;;;;;;;2614856;54;20447;-74
2023/10/08 10:20:48;;;;;;;5.10;4.80;;;;;;;;;;2615302;39;20809;-73
2023/10/08 10:23:33;;;;;;;6.63;5.27;;;;;;;;;;2613674;54;21079;-74
2023/10/08 10:26:00;;;;;;;6.13;4.90;;;;;;;;;;2614278;46;20410;-74
2023/10/08 10:28:37;;;;;;;5.90;4.40;;;;;;;;;;2614357;54;20434;-74
2023/10/08 10:31:07;;;;;;;5.30;4.67;;;;;;;;;;2614204;54;20993;-74
2023/10/08 10:33:33;;;;;;;5.77;5.27;;;;;;;;;;2615629;54;20499;-74
2023/10/08 10:36:05;;;;;;;4.57;4.27;;;;;;;;;;2614760;54;20964;-74
2023/10/08 10:38:33;;;;;;;5.47;4.97;;;;;;;;;;2615658;31;21035;-73
2023/10/08 10:41:07;;;;;;;3.90;3.70;;;;;;;;;;2615029;47;20424;-73
2023/10/08 10:43:33;;;;;;;4.63;4.33;;;;;;;;;;2613753;47;20447;-72
2023/10/08 10:49:04;;;;;;;4.83;4.43;;;;;;;;;;2612978;54;20418;-72
2023/10/08 10:51:30;;;;;;;4.10;3.90;;;;;;;;;;2611933;47;20562;-73
2023/10/08 10:54:00;;;;;;;4.97;4.57;;;;;;;;;;2612881;54;20504;-72
2023/10/08 10:56:29;;;;;;;5.53;5.00;;;;;;;;;;2609543;54;20435;-72
2023/10/08 10:59:15;;;;;;;5.30;4.80;;;;;;;;;;2612269;54;20519;-73
2023/10/08 11:01:46;;;;;;;6.93;4.80;;;;;;;;;;2613356;54;20407;-71
2023/10/08 11:04:15;;;;;;;6.13;5.50;;;;;;;;;;2613329;54;20978;-74
2023/10/08 11:06:44;;;;;;;5.27;4.90;;;;;;;;;;2612822;47;20418;-73
2023/10/08 11:09:17;;;;;;;5.60;5.20;;;;;;;;;;2612277;47;20427;-72
2023/10/08 11:11:54;;;;;;;5.17;4.87;;;;;;;;;;2612711;54;20423;-74
2023/10/08 11:14:21;;;;;;;5.90;5.40;;;;;;;;;;2612849;54;20388;-71
2023/10/08 11:16:48;;;;;;;5.53;5.20;;;;;;;;;;2612726;54;20451;-72
2023/10/08 11:19:15;;;;;;;6.23;5.60;;;;;;;;;;2612901;54;20989;-73
2023/10/08 11:21:53;;;;;;;6.17;5.77;;;;;;;;;;2612765;47;20443;-73
2023/10/08 11:24:34;;;;;;;6.00;5.50;;;;;;;;;;2612776;54;20400;-74
2023/10/08 11:27:17;;;;;;;5.40;5.10;;;;;;;;;;2611702;54;20424;-72
2023/10/08 11:29:47;;;;;;;6.40;5.73;;;;;;;;;;2612865;54;20411;-73
2023/10/08 11:32:15;;;;;;;6.37;5.97;;;;;;;;;;2613809;39;21189;-73
2023/10/08 11:34:43;;;;;;;6.00;5.60;;;;;;;;;;2612183;54;21092;-73
2023/10/08 11:37:20;;;;;;;6.53;6.00;;;;;;;;;;2611516;54;20436;-72
2023/10/08 11:39:47;;;;;;;6.60;6.10;;;;;;;;;;2612427;54;20415;-72
2023/10/08 11:42:40;;;;;;;6.40;6.00;;;;;;;;;;2611227;54;20458;-72
2023/10/08 11:45:24;;;;;;;6.63;6.03;;;;;;;;;;2611180;47;20427;-72
2023/10/08 11:48:11;;;;;;;7.00;6.40;;;;;;;;;;2611120;54;20419;-72
2023/10/08 11:50:38;;;;;;;6.83;6.20;;;;;;;;;;2611429;54;20420;-73
2023/10/08 11:53:05;;;;;;;6.90;6.50;;;;;;;;;;2609907;54;20465;-74
2023/10/08 11:55:42;;;;;;;6.10;5.70;;;;;;;;;;2614156;54;20494;-74
2023/10/08 11:58:10;;;;;;;6.27;5.73;;;;;;;;;;2615604;54;20419;-73
2023/10/08 12:00:45;;;;;;;6.00;5.50;;;;;;;;;;2615562;31;20826;-74
2023/10/08 12:03:12;;;;;;;7.27;6.63;;;;;;;;;;2615419;54;20529;-73
2023/10/08 12:05:48;;;;;;;6.20;5.70;;;;;;;;;;2615668;39;20510;-73
2023/10/08 12:08:22;;;;;;;7.40;6.90;;;;;;;;;;2616056;54;20435;-73
2023/10/08 12:10:54;;;;;;;7.07;6.37;;;;;;;;;;2615333;50;20425;-73
2023/10/08 12:13:24;;;;;;;6.80;6.40;;;;;;;;;;2615179;39;20812;-74
2023/10/08 12:16:06;;;;;;;6.90;6.50;;;;;;;;;;2615070;54;20962;-73
2023/10/08 12:18:39;;;;;;;7.00;6.50;;;;;;;;;;2615382;54;20427;-73
2023/10/08 12:21:15;;;;;;;7.80;7.10;;;;;;;;;;2615749;54;20458;-72
2023/10/08 12:23:51;;;;;;;6.97;6.57;;;;;;;;;;2616687;54;20458;-73
2023/10/08 12:26:21;;;;;;;6.60;6.20;;;;;;;;;;2615825;54;20436;-73
2023/10/08 12:28:48;;;;;;;7.10;6.80;;;;;;;;;;2616276;54;20544;-74
2023/10/08 12:31:22;;;;;;;7.10;6.70;;;;;;;;;;2616331;54;20897;-73
2023/10/08 12:33:53;;;;;;;7.73;7.23;;;;;;;;;;2615630;46;20412;-74
2023/10/08 12:36:32;;;;;;;8.43;7.83;;;;;;;;;;2617041;39;20797;-74
2023/10/08 12:39:08;;;;;;;7.63;7.03;;;;;;;;;;2615882;54;20976;-74
2023/10/08 12:41:38;;;;;;;7.23;6.23;;;;;;;;;;2615391;54;20410;-74
2023/10/08 12:44:07;;;;;;;7.47;6.97;;;;;;;;;;2615729;47;20400;-73
2023/10/08 12:46:35;;;;;;;6.80;6.50;;;;;;;;;;2616153;54;20439;-73
2023/10/08 12:49:07;;;;;;;7.27;6.83;;;;;;;;;;2616047;54;20439;-73
2023/10/08 12:51:33;;;;;;;9.60;7.60;;;;;;;;;;2615370;47;20431;-74
2023/10/08 12:54:06;;;;;;;7.80;7.20;;;;;;;;;;2615070;54;20431;-74
2023/10/08 12:56:39;;;;;;;6.40;6.07;;;;;;;;;;2616256;39;20517;-74
2023/10/08 12:59:15;;;;;;;6.80;6.40;;;;;;;;;;2615765;54;20930;-74
2023/10/08 13:01:43;;;;;;;7.30;6.90;;;;;;;;;;2614767;54;20469;-74
2023/10/08 13:04:15;;;;;;;7.50;6.57;;;;;;;;;;2612796;54;20427;-73
2023/10/08 13:06:45;;;;;;;7.80;7.20;;;;;;;;;;2612136;54;20427;-73
2023/10/08 13:09:14;;;;;;;7.00;6.40;;;;;;;;;;2611368;54;20426;-73
2023/10/08 13:11:40;;;;;;;8.20;6.90;;;;;;;;;;2612684;54;21324;-72
2023/10/08 13:14:06;;;;;;;7.17;6.53;;;;;;;;;;2613197;54;20434;-74
2023/10/08 13:16:32;;;;;;;7.53;6.93;;;;;;;;;;2613283;54;20407;-74
2023/10/08 13:18:59;;;;;;;7.30;6.80;;;;;;;;;;2612656;47;20535;-74
2023/10/08 13:21:28;;;;;;;7.03;6.50;;;;;;;;;;2613460;54;21095;-74
2023/10/08 13:23:59;;;;;;;7.07;6.57;;;;;;;;;;2613224;54;20562;-74
2023/10/08 13:26:30;;;;;;;6.70;6.20;;;;;;;;;;2613530;54;20516;-75
2023/10/08 13:28:58;;;;;;;6.70;6.30;;;;;;;;;;2612025;54;20456;-73
2023/10/08 13:31:24;;;;;;;6.60;6.20;;;;;;;;;;2613241;54;20423;-74
2023/10/08 13:33:52;;;;;;;7.03;6.63;;;;;;;;;;2612554;54;21023;-74
2023/10/08 13:36:18;;;;;;;6.50;6.10;;;;;;;;;;2613378;54;20415;-74
2023/10/08 13:38:48;;;;;;;7.83;7.13;;;;;;;;;;2613465;54;20399;-74
2023/10/08 13:41:20;;;;;;;8.33;7.50;;;;;;;;;;2613697;54;20435;-74
2023/10/08 13:43:47;;;;;;;6.70;6.20;;;;;;;;;;2612099;47;20514;-73
2023/10/08 13:46:17;;;;;;;6.60;6.20;;;;;;;;;;2613384;54;20455;-74
2023/10/08 13:48:51;;;;;;;7.00;6.33;;;;;;;;;;2612966;47;20474;-74
2023/10/08 13:51:23;;;;;;;7.33;6.67;;;;;;;;;;2612372;47;20547;-73
2023/10/08 13:53:53;;;;;;;6.50;6.10;;;;;;;;;;2613031;54;20595;-74
2023/10/08 13:56:24;;;;;;;6.87;6.37;;;;;;;;;;2612790;54;20407;-74
2023/10/08 13:58:51;;;;;;;6.43;5.83;;;;;;;;;;2612791;54;20490;-73
2023/10/08 14:01:21;;;;;;;5.60;5.20;;;;;;;;;;2612336;47;20428;-74
2023/10/08 14:03:53;;;;;;;5.47;5.17;;;;;;;;;;2612951;54;20395;-75
2023/10/08 14:06:20;;;;;;;5.57;5.07;;;;;;;;;;2613307;54;20454;-74
2023/10/08 14:08:52;;;;;;;7.00;6.30;;;;;;;;;;2612903;54;20438;-74
2023/10/08 14:11:29;;;;;;;6.93;6.10;;;;;;;;;;2614380;31;20889;-74
2023/10/08 14:13:55;;;;;;;7.13;6.53;;;;;;;;;;2612064;47;20415;-74
2023/10/08 14:16:23;;;;;;;6.90;6.20;;;;;;;;;;2612627;50;20428;-74
2023/10/08 14:18:59;;;;;;;6.30;5.70;;;;;;;;;;2613064;54;20399;-74
2023/10/08 14:21:30;;;;;;;6.27;5.80;;;;;;;;;;2613212;54;20833;-73
2023/10/08 14:24:03;;;;;;;7.63;5.80;;;;;;;;;;2612364;47;20969;-74
2023/10/08 14:26:36;;;;;;;6.07;5.67;;;;;;;;;;2613413;54;20392;-74
2023/10/08 14:29:15;;;;;;;7.00;5.50;;;;;;;;;;2612950;54;20447;-74
2023/10/08 14:31:44;;;;;;;6.27;5.47;;;;;;;;;;2612996;54;20394;-74
2023/10/08 14:34:29;;;;;;;6.97;5.20;;;;;;;;;;2613477;54;20419;-74
2023/10/08 14:45:13;;;;;;;8.33;5.80;;;;;;;;;;2613279;54;20442;-74
2023/10/08 14:47:39;;;;;;;5.23;4.73;;;;;;;;;;2613341;54;20423;-73
2023/10/08 14:50:05;;;;;;;5.47;4.97;;;;;;;;;;2612555;54;20431;-73
2023/10/08 14:52:35;;;;;;;5.70;4.83;;;;;;;;;;2611773;54;20454;-74
2023/10/08 14:55:03;;;;;;;5.53;5.03;;;;;;;;;;2611927;51;20467;-74
2023/10/08 14:57:29;;;;;;;5.00;4.70;;;;;;;;;;2612390;54;21345;-74
2023/10/08 14:59:57;;;;;;;4.93;4.63;;;;;;;;;;2612489;47;20411;-74
2023/10/08 15:02:29;;;;;;;5.60;5.30;;;;;;;;;;2612902;54;20422;-74
2023/10/08 15:04:56;;;;;;;7.40;5.40;;;;;;;;;;2612245;54;20490;-74
2023/10/08 15:07:22;;;;;;;5.40;5.00;;;;;;;;;;2612317;54;20956;-74
2023/10/08 15:09:49;;;;;;;5.63;5.23;;;;;;;;;;2612377;46;20448;-74
2023/10/08 15:12:16;;;;;;;5.73;5.30;;;;;;;;;;2612275;54;20956;-74
2023/10/08 15:14:43;;;;;;;6.63;5.03;;;;;;;;;;2613072;39;20803;-74
2023/10/08 15:17:09;;;;;;;5.63;5.17;;;;;;;;;;2612492;46;20562;-75
2023/10/08 15:19:35;;;;;;;6.07;5.03;;;;;;;;;;2612942;54;20415;-74
2023/10/08 15:22:02;;;;;;;7.50;5.40;;;;;;;;;;2612215;48;20427;-75
2023/10/08 15:24:29;;;;;;;4.63;4.23;;;;;;;;;;2612878;54;20426;-74
2023/10/08 15:26:55;;;;;;;6.10;4.43;;;;;;;;;;2612261;54;20403;-74
2023/10/08 15:29:25;;;;;;;4.03;3.63;;;;;;;;;;2613279;54;20973;-75
2023/10/08 15:31:51;;;;;;;6.80;4.73;;;;;;;;;;2613512;54;21068;-75
2023/10/08 15:34:18;;;;;;;4.10;3.67;;;;;;;;;;2613549;54;20402;-75
2023/10/08 15:36:44;;;;;;;6.03;5.33;;;;;;;;;;2613421;54;20411;-74
2023/10/08 15:39:21;;;;;;;5.63;5.13;;;;;;;;;;2613945;54;22197;-74
2023/10/08 15:41:53;;;;;;;8.40;5.53;;;;;;;;;;2613533;47;20505;-75
2023/10/08 15:44:22;;;;;;;8.03;5.00;;;;;;;;;;2614288;54;20400;-74
2023/10/08 15:46:51;;;;;;;6.33;5.73;;;;;;;;;;2615799;39;20868;-73
2023/10/08 15:49:19;;;;;;;6.20;5.60;;;;;;;;;;2616388;54;20450;-74
2023/10/08 15:51:46;;;;;;;6.70;5.60;;;;;;;;;;2615273;54;20547;-74
2023/10/08 15:54:12;;;;;;;5.27;4.80;;;;;;;;;;2615954;54;20449;-73
2023/10/08 15:56:38;;;;;;;7.73;6.00;;;;;;;;;;2617174;39;20761;-73